Time,TemperatureF,DewpointF,PressureIn,WindDirection,WindDirectionDegrees,WindSpeedMPH,WindSpeedGustMPH,Humidity,HourlyPrecipIn,Conditions,Clouds,dailyrainin,SoftwareType,DateUTC
2013-11-07 00:01:00,54.8,53.7,30.21,WSW,252,2.0,8.0,96,0.00,,---,0.13,VWS V14.01,2013-11-07 06:01:00,
2013-11-07 00:06:00,54.8,53.7,30.21,WNW,282,0.0,8.0,96,0.00,,---,0.13,VWS V14.01,2013-11-07 06:06:00,
2013-11-07 00:11:00,54.8,53.7,30.21,WNW,284,0.0,7.0,96,0.00,,---,0.00,VWS V14.01,2013-11-07 06:11:00,
2013-11-07 00:16:00,54.8,53.7,30.21,West,269,1.0,7.0,96,0.00,,---,0.00,VWS V14.01,2013-11-07 06:16:00,
2013-11-07 00:21:00,54.7,53.6,30.22,ESE,118,0.0,7.0,96,0.00,,---,0.00,VWS V14.01,2013-11-07 06:21:00,
2013-11-07 00:26:00,54.7,53.6,30.22,NNE,25,0.0,7.0,96,0.00,,---,0.00,VWS V14.01,2013-11-07 06:26:00,
2013-11-07 00:31:00,54.7,53.6,30.22,NNE,30,1.0,7.0,96,0.00,,---,0.00,VWS V14.01,2013-11-07 06:31:00,
2013-11-07 00:36:00,54.6,53.5,30.22,NNE,25,0.0,13.0,96,0.00,,---,0.00,VWS V14.01,2013-11-07 06:36:00,
2013-11-07 00:41:00,54.3,53.2,30.22,WSW,254,12.0,12.0,96,0.00,,---,0.00,VWS V14.01,2013-11-07 06:41:00,
2013-11-07 00:46:00,53.9,52.8,30.22,SSE,161,2.0,12.0,96,0.00,,---,0.00,VWS V14.01,2013-11-07 06:46:00,
2013-11-07 00:51:00,53.6,52.2,30.22,NE,36,5.0,15.0,95,0.00,,---,0.00,VWS V14.01,2013-11-07 06:51:00,
2013-11-07 00:56:00,53.5,52.1,30.22,North,355,0.0,15.0,95,0.00,,---,0.00,VWS V14.01,2013-11-07 06:56:00,
2013-11-07 01:01:00,53.3,51.9,30.22,ESE,112,2.0,15.0,95,0.00,,---,0.00,VWS V14.01,2013-11-07 07:01:00,
2013-11-07 01:06:00,53.2,51.8,30.22,SE,140,1.0,15.0,95,0.00,,---,0.00,VWS V14.01,2013-11-07 07:06:00,
2013-11-07 01:11:00,53.2,51.8,30.22,ESE,113,2.0,10.0,95,0.00,,---,0.00,VWS V14.01,2013-11-07 07:11:00,
2013-11-07 01:16:00,53.1,51.7,30.23,East,95,1.0,14.0,95,0.00,,---,0.00,VWS V14.01,2013-11-07 07:16:00,
2013-11-07 01:21:00,53.0,51.6,30.23,SSE,163,0.0,14.0,95,0.00,,---,0.00,VWS V14.01,2013-11-07 07:21:00,
2013-11-07 01:26:00,53.0,51.6,30.23,WNW,284,0.0,14.0,95,0.00,,---,0.00,VWS V14.01,2013-11-07 07:26:00,
2013-11-07 01:31:00,53.0,51.6,30.23,North,9,2.0,14.0,95,0.00,,---,0.00,VWS V14.01,2013-11-07 07:31:00,
2013-11-07 01:36:00,52.9,51.5,30.23,WSW,248,2.0,14.0,95,0.00,,---,0.00,VWS V14.01,2013-11-07 07:36:00,
2013-11-07 01:41:00,52.9,51.5,30.23,NE,53,0.0,6.0,95,0.00,,---,0.00,VWS V14.01,2013-11-07 07:41:00,
2013-11-07 01:46:00,52.9,51.5,30.23,ENE,77,1.0,8.0,95,0.00,,---,0.00,VWS V14.01,2013-11-07 07:46:00,
2013-11-07 01:51:00,52.8,51.4,30.23,NNW,341,3.0,8.0,95,0.00,,---,0.00,VWS V14.01,2013-11-07 07:51:00,
2013-11-07 01:56:00,52.7,51.3,30.23,NE,53,2.0,8.0,95,0.00,,---,0.00,VWS V14.01,2013-11-07 07:56:00,
2013-11-07 02:01:00,52.7,51.3,30.23,NE,38,0.0,8.0,95,0.00,,---,0.00,VWS V14.01,2013-11-07 08:01:00,
2013-11-07 02:06:00,52.6,51.2,30.23,East,80,0.0,8.0,95,0.00,,---,0.00,VWS V14.01,2013-11-07 08:06:00,
2013-11-07 02:11:00,52.5,51.1,30.23,NNE,27,1.0,7.0,95,0.00,,---,0.00,VWS V14.01,2013-11-07 08:11:00,
2013-11-07 02:16:00,52.5,51.1,30.23,NNW,348,2.0,7.0,95,0.00,,---,0.00,VWS V14.01,2013-11-07 08:16:00,
2013-11-07 02:21:00,52.4,51.0,30.23,NNW,342,6.0,7.0,95,0.00,,---,0.00,VWS V14.01,2013-11-07 08:21:00,
2013-11-07 02:26:00,52.3,50.6,30.24,NNE,22,1.0,9.0,94,0.00,,---,0.00,VWS V14.01,2013-11-07 08:26:00,
2013-11-07 02:31:00,52.1,50.4,30.24,ESE,119,4.0,9.0,94,0.00,,---,0.00,VWS V14.01,2013-11-07 08:31:00,
2013-11-07 02:36:00,52.0,50.3,30.24,NE,36,4.0,5.0,94,0.00,,---,0.00,VWS V14.01,2013-11-07 08:36:00,
2013-11-07 02:42:00,51.7,50.0,30.24,NNW,340,2.0,6.0,94,0.00,,---,0.00,VWS V14.01,2013-11-07 08:42:00,
2013-11-07 02:47:00,51.5,49.8,30.24,ENE,74,3.0,9.0,94,0.00,,---,0.00,VWS V14.01,2013-11-07 08:47:00,
2013-11-07 02:52:00,51.4,49.7,30.25,NE,52,1.0,9.0,94,0.00,,---,0.00,VWS V14.01,2013-11-07 08:52:00,
2013-11-07 02:57:00,51.2,49.5,30.25,ESE,113,1.0,9.0,94,0.00,,---,0.00,VWS V14.01,2013-11-07 08:57:00,
2013-11-07 03:02:00,51.1,49.4,30.25,NNW,332,1.0,9.0,94,0.00,,---,0.00,VWS V14.01,2013-11-07 09:02:00,
2013-11-07 03:06:00,50.9,49.2,30.25,NE,37,0.0,9.0,94,0.00,,---,0.00,VWS V14.01,2013-11-07 09:06:00,
2013-11-07 03:07:00,50.9,49.2,30.25,West,281,0.0,1.0,94,0.00,,---,0.00,VWS V14.01,2013-11-07 09:07:00,
2013-11-07 03:12:00,50.9,49.2,30.25,NNE,26,1.0,5.0,94,0.00,,---,0.00,VWS V14.01,2013-11-07 09:12:00,
2013-11-07 03:17:00,50.8,49.1,30.25,NNW,341,1.0,5.0,94,0.00,,---,0.00,VWS V14.01,2013-11-07 09:17:00,
2013-11-07 03:22:00,50.8,49.1,30.25,NE,40,2.0,7.0,94,0.00,,---,0.00,VWS V14.01,2013-11-07 09:22:00,
2013-11-07 03:27:00,50.8,49.1,30.25,ESE,112,0.0,7.0,94,0.00,,---,0.00,VWS V14.01,2013-11-07 09:27:00,
2013-11-07 03:32:00,50.8,49.1,30.25,North,5,3.0,8.0,94,0.00,,---,0.00,VWS V14.01,2013-11-07 09:32:00,
2013-11-07 03:36:00,50.7,49.0,30.25,NNE,19,2.0,13.0,94,0.00,,---,0.00,VWS V14.01,2013-11-07 09:36:00,
2013-11-07 03:42:00,50.6,48.9,30.25,South,180,0.0,4.0,94,0.00,,---,0.00,VWS V14.01,2013-11-07 09:42:00,
2013-11-07 03:47:00,50.6,48.9,30.25,SSW,195,0.0,5.0,94,0.00,,---,0.00,VWS V14.01,2013-11-07 09:47:00,
2013-11-07 03:52:00,50.5,48.8,30.26,East,82,2.0,8.0,94,0.00,,---,0.00,VWS V14.01,2013-11-07 09:52:00,
2013-11-07 03:57:00,50.5,48.8,30.26,East,82,3.0,9.0,94,0.00,,---,0.00,VWS V14.01,2013-11-07 09:57:00,
2013-11-07 04:02:00,50.4,48.5,30.26,NNW,341,4.0,9.0,93,0.00,,---,0.00,VWS V14.01,2013-11-07 10:02:00,
2013-11-07 04:06:00,50.4,48.5,30.26,North,5,3.0,9.0,93,0.00,,---,0.00,VWS V14.01,2013-11-07 10:06:00,
2013-11-07 04:07:00,50.4,48.5,30.26,NNE,19,6.0,6.0,93,0.00,,---,0.00,VWS V14.01,2013-11-07 10:07:00,
2013-11-07 04:12:00,50.3,48.1,30.27,East,80,1.0,6.0,92,0.00,,---,0.00,VWS V14.01,2013-11-07 10:12:00,
2013-11-07 04:17:00,50.3,48.1,30.27,NNW,333,4.0,6.0,92,0.00,,---,0.00,VWS V14.01,2013-11-07 10:17:00,
2013-11-07 04:22:00,50.3,47.8,30.27,NE,42,0.0,6.0,91,0.00,,---,0.00,VWS V14.01,2013-11-07 10:22:00,
2013-11-07 04:27:00,50.3,47.8,30.27,NNW,346,4.0,6.0,91,0.00,,---,0.00,VWS V14.01,2013-11-07 10:27:00,
2013-11-07 04:32:00,50.3,47.8,30.27,ESE,121,0.0,6.0,91,0.00,,---,0.00,VWS V14.01,2013-11-07 10:32:00,
2013-11-07 04:36:00,50.3,47.8,30.28,NE,37,1.0,6.0,91,0.00,,---,0.00,VWS V14.01,2013-11-07 10:36:00,
2013-11-07 04:42:00,50.3,47.5,30.28,ENE,74,1.0,6.0,90,0.00,,---,0.00,VWS V14.01,2013-11-07 10:42:00,
2013-11-07 04:47:00,50.3,47.5,30.28,ENE,66,0.0,6.0,90,0.00,,---,0.00,VWS V14.01,2013-11-07 10:47:00,
2013-11-07 04:52:00,50.3,47.5,30.28,ENE,76,3.0,6.0,90,0.00,,---,0.00,VWS V14.01,2013-11-07 10:52:00,
2013-11-07 04:57:00,50.0,46.9,30.29,East,88,2.0,8.0,89,0.00,,---,0.00,VWS V14.01,2013-11-07 10:57:00,
2013-11-07 05:02:00,49.9,46.5,30.29,NNE,12,2.0,8.0,88,0.00,,---,0.00,VWS V14.01,2013-11-07 11:02:00,
2013-11-07 05:06:00,49.8,46.4,30.29,SE,127,2.0,8.0,88,0.00,,---,0.00,VWS V14.01,2013-11-07 11:06:00,
2013-11-07 05:07:00,49.8,46.4,30.29,ENE,64,0.0,7.0,88,0.00,,---,0.00,VWS V14.01,2013-11-07 11:07:00,
2013-11-07 05:12:00,49.7,46.0,30.29,East,94,0.0,7.0,87,0.00,,---,0.00,VWS V14.01,2013-11-07 11:12:00,
2013-11-07 05:17:00,49.6,45.9,30.29,East,84,0.0,7.0,87,0.00,,---,0.00,VWS V14.01,2013-11-07 11:17:00,
2013-11-07 05:22:00,49.6,46.2,30.30,ENE,57,0.0,7.0,88,0.00,,---,0.00,VWS V14.01,2013-11-07 11:22:00,
2013-11-07 05:27:00,49.6,45.9,30.30,ENE,69,2.0,7.0,87,0.00,,---,0.00,VWS V14.01,2013-11-07 11:27:00,
2013-11-07 05:32:00,49.5,45.8,30.30,NW,321,0.0,7.0,87,0.00,,---,0.00,VWS V14.01,2013-11-07 11:32:00,
2013-11-07 05:37:00,49.5,46.1,30.30,SE,127,0.0,1.0,88,0.00,,---,0.00,VWS V14.01,2013-11-07 11:37:00,
2013-11-07 05:42:00,49.4,45.7,30.30,North,11,0.0,3.0,87,0.00,,---,0.00,VWS V14.01,2013-11-07 11:42:00,
2013-11-07 05:47:00,49.4,46.0,30.30,North,5,0.0,3.0,88,0.00,,---,0.00,VWS V14.01,2013-11-07 11:47:00,
2013-11-07 05:52:00,49.4,46.0,30.30,NNW,344,2.0,4.0,88,0.00,,---,0.00,VWS V14.01,2013-11-07 11:52:00,
2013-11-07 05:57:00,49.4,46.0,30.31,NNW,336,1.0,8.0,88,0.00,,---,0.00,VWS V14.01,2013-11-07 11:57:00,
2013-11-07 06:02:00,49.3,45.9,30.32,ENE,65,4.0,9.0,88,0.00,,---,0.00,VWS V14.01,2013-11-07 12:02:00,
2013-11-07 06:06:00,49.3,45.9,30.32,East,101,3.0,9.0,88,0.00,,---,0.00,VWS V14.01,2013-11-07 12:06:00,
2013-11-07 06:07:00,49.3,45.9,30.32,ENE,71,4.0,6.0,88,0.00,,---,0.00,VWS V14.01,2013-11-07 12:07:00,
2013-11-07 06:12:00,49.1,45.4,30.32,ENE,68,1.0,7.0,87,0.00,,---,0.00,VWS V14.01,2013-11-07 12:12:00,
2013-11-07 06:17:00,48.9,45.2,30.33,NE,43,0.0,7.0,87,0.00,,---,0.00,VWS V14.01,2013-11-07 12:17:00,
2013-11-07 06:22:00,48.6,44.6,30.33,ENE,69,1.0,9.0,86,0.00,,---,0.00,VWS V14.01,2013-11-07 12:22:00,
2013-11-07 06:27:00,48.2,43.9,30.34,ENE,74,2.0,9.0,85,0.00,,---,0.00,VWS V14.01,2013-11-07 12:27:00,
2013-11-07 06:32:00,47.9,43.6,30.34,NNW,346,3.0,12.0,85,0.00,,---,0.00,VWS V14.01,2013-11-07 12:32:00,
2013-11-07 06:36:00,47.5,43.2,30.34,East,82,5.0,12.0,85,0.00,,---,0.00,VWS V14.01,2013-11-07 12:36:00,
2013-11-07 06:42:00,47.3,43.0,30.35,NNW,332,2.0,6.0,85,0.00,,---,0.00,VWS V14.01,2013-11-07 12:42:00,
2013-11-07 06:47:00,47.1,43.1,30.35,East,86,2.0,8.0,86,0.00,,---,0.00,VWS V14.01,2013-11-07 12:47:00,
2013-11-07 06:52:00,46.9,42.6,30.35,NE,45,1.0,8.0,85,0.00,,---,0.00,VWS V14.01,2013-11-07 12:52:00,
2013-11-07 06:57:00,46.7,42.7,30.36,ESE,105,3.0,8.0,86,0.00,,---,0.00,VWS V14.01,2013-11-07 12:57:00,
2013-11-07 07:02:00,46.6,42.6,30.36,East,90,2.0,8.0,86,0.00,,---,0.00,VWS V14.01,2013-11-07 13:02:00,
2013-11-07 07:06:00,46.5,42.5,30.37,NE,54,3.0,8.0,86,0.00,,---,0.00,VWS V14.01,2013-11-07 13:06:00,
2013-11-07 07:07:00,46.5,42.5,30.37,SSW,196,1.0,4.0,86,0.00,,---,0.00,VWS V14.01,2013-11-07 13:07:00,
2013-11-07 07:12:00,46.3,42.0,30.37,ENE,67,1.0,8.0,85,0.00,,---,0.00,VWS V14.01,2013-11-07 13:12:00,
2013-11-07 07:17:00,46.2,42.0,30.37,SSE,153,10.0,10.0,85,0.00,,---,0.00,VWS V14.01,2013-11-07 13:17:00,
2013-11-07 07:22:00,46.0,41.8,30.37,NNW,342,6.0,10.0,85,0.00,,---,0.00,VWS V14.01,2013-11-07 13:22:00,
2013-11-07 07:27:00,45.9,41.7,30.37,ESE,109,1.0,12.0,85,0.00,,---,0.00,VWS V14.01,2013-11-07 13:27:00,
2013-11-07 07:32:00,45.9,41.7,30.37,NE,49,3.0,12.0,85,0.00,,---,0.00,VWS V14.01,2013-11-07 13:32:00,
2013-11-07 07:36:00,45.8,41.5,30.38,East,88,3.0,12.0,85,0.00,,---,0.00,VWS V14.01,2013-11-07 13:36:00,
2013-11-07 07:37:00,45.8,41.5,30.38,ENE,59,0.0,3.0,85,0.00,,---,0.00,VWS V14.01,2013-11-07 13:37:00,
2013-11-07 07:42:00,45.9,41.7,30.38,NNE,15,0.0,4.0,85,0.00,,---,0.00,VWS V14.01,2013-11-07 13:42:00,
2013-11-07 07:47:00,46.0,41.8,30.38,North,11,1.0,4.0,85,0.00,,---,0.00,VWS V14.01,2013-11-07 13:47:00,
2013-11-07 07:52:00,46.0,41.8,30.38,NNW,340,1.0,7.0,85,0.00,,---,0.00,VWS V14.01,2013-11-07 13:52:00,
2013-11-07 07:57:00,46.2,42.0,30.37,ENE,59,1.0,8.0,85,0.00,,---,0.00,VWS V14.01,2013-11-07 13:57:00,
2013-11-07 08:02:00,46.3,42.0,30.38,SSE,161,0.0,8.0,85,0.00,,---,0.00,VWS V14.01,2013-11-07 14:02:00,
2013-11-07 08:06:00,46.4,42.1,30.38,East,88,2.0,8.0,85,0.00,,---,0.00,VWS V14.01,2013-11-07 14:06:00,
2013-11-07 08:07:00,46.5,42.2,30.38,East,83,3.0,5.0,85,0.00,,---,0.00,VWS V14.01,2013-11-07 14:07:00,
2013-11-07 08:12:00,46.7,42.4,30.38,NE,55,0.0,7.0,85,0.00,,---,0.00,VWS V14.01,2013-11-07 14:12:00,
2013-11-07 08:17:00,46.8,42.5,30.38,NNE,13,1.0,9.0,85,0.00,,---,0.00,VWS V14.01,2013-11-07 14:17:00,
2013-11-07 08:22:00,47.0,42.7,30.38,NNE,26,2.0,9.0,85,0.00,,---,0.00,VWS V14.01,2013-11-07 14:22:00,
2013-11-07 08:28:00,47.2,42.9,30.38,SSW,203,0.0,9.0,85,0.00,,---,0.00,VWS V14.01,2013-11-07 14:28:00,
2013-11-07 08:33:00,47.4,43.1,30.39,East,82,1.0,9.0,85,0.00,,---,0.00,VWS V14.01,2013-11-07 14:33:00,
2013-11-07 08:36:00,47.6,43.3,30.39,ENE,61,2.0,9.0,85,0.00,,---,0.00,VWS V14.01,2013-11-07 14:36:00,
2013-11-07 08:38:00,47.6,43.0,30.39,East,86,1.0,5.0,84,0.00,,---,0.00,VWS V14.01,2013-11-07 14:38:00,
2013-11-07 08:43:00,47.9,43.3,30.39,NE,55,0.0,5.0,84,0.00,,---,0.00,VWS V14.01,2013-11-07 14:43:00,
2013-11-07 08:48:00,48.1,43.2,30.39,ESE,114,3.0,7.0,83,0.00,,---,0.00,VWS V14.01,2013-11-07 14:48:00,
2013-11-07 08:53:00,48.5,43.6,30.39,East,82,3.0,7.0,83,0.00,,---,0.00,VWS V14.01,2013-11-07 14:53:00,
2013-11-07 08:58:00,49.3,44.0,30.40,SE,130,2.0,8.0,82,0.00,,---,0.00,VWS V14.01,2013-11-07 14:58:00,
2013-11-07 09:03:00,49.5,43.9,30.40,ENE,64,0.0,8.0,81,0.00,,---,0.00,VWS V14.01,2013-11-07 15:03:00,
2013-11-07 09:06:00,49.4,43.5,30.40,East,101,2.0,8.0,80,0.00,,---,0.00,VWS V14.01,2013-11-07 15:06:00,
2013-11-07 09:08:00,49.3,43.4,30.40,ENE,67,3.0,5.0,80,0.00,,---,0.00,VWS V14.01,2013-11-07 15:08:00,
2013-11-07 09:13:00,49.4,44.1,30.40,NNE,32,4.0,7.0,82,0.00,,---,0.00,VWS V14.01,2013-11-07 15:13:00,
2013-11-07 09:18:00,50.2,44.3,30.40,SSE,152,3.0,7.0,80,0.00,,---,0.00,VWS V14.01,2013-11-07 15:18:00,
2013-11-07 09:23:00,50.9,44.3,30.40,East,92,2.0,7.0,78,0.00,,---,0.00,VWS V14.01,2013-11-07 15:23:00,
2013-11-07 09:28:00,51.3,44.3,30.40,SE,125,2.0,7.0,77,0.00,,---,0.00,VWS V14.01,2013-11-07 15:28:00,
2013-11-07 09:33:00,51.8,44.8,30.39,ENE,60,5.0,9.0,77,0.00,,---,0.00,VWS V14.01,2013-11-07 15:33:00,
2013-11-07 09:38:00,52.7,45.4,30.39,ESE,108,2.0,6.0,76,0.00,,---,0.00,VWS V14.01,2013-11-07 15:38:00,
2013-11-07 09:43:00,52.9,44.5,30.39,ESE,114,2.0,9.0,73,0.01,,---,0.01,VWS V14.01,2013-11-07 15:43:00,
2013-11-07 09:48:00,53.5,44.7,30.39,ENE,58,5.0,9.0,72,0.01,,---,0.01,VWS V14.01,2013-11-07 15:48:00,
2013-11-07 09:53:00,53.3,43.8,30.40,NE,38,1.0,9.0,70,0.01,,---,0.01,VWS V14.01,2013-11-07 15:53:00,
2013-11-07 09:58:00,53.3,44.5,30.40,East,97,2.0,9.0,72,0.01,,---,0.01,VWS V14.01,2013-11-07 15:58:00,
2013-11-07 10:03:00,53.3,44.2,30.40,ESE,102,3.0,9.0,71,0.01,,---,0.01,VWS V14.01,2013-11-07 16:03:00,
2013-11-07 10:08:00,53.4,44.2,30.40,ENE,67,5.0,7.0,71,0.01,,---,0.01,VWS V14.01,2013-11-07 16:08:00,
2013-11-07 10:13:00,53.9,45.1,30.40,East,81,2.0,7.0,72,0.01,,---,0.01,VWS V14.01,2013-11-07 16:13:00,
2013-11-07 10:18:00,54.3,44.4,30.40,NE,35,1.0,7.0,69,0.01,,---,0.01,VWS V14.01,2013-11-07 16:18:00,
2013-11-07 10:23:00,54.3,43.2,30.40,NE,48,2.0,13.0,66,0.01,,---,0.01,VWS V14.01,2013-11-07 16:23:00,
2013-11-07 10:28:00,54.3,43.2,30.40,ESE,119,5.0,13.0,66,0.01,,---,0.01,VWS V14.01,2013-11-07 16:28:00,
2013-11-07 10:33:00,54.5,43.4,30.40,NNW,342,3.0,13.0,66,0.01,,---,0.01,VWS V14.01,2013-11-07 16:33:00,
2013-11-07 10:36:00,54.7,43.6,30.40,East,92,6.0,13.0,66,0.01,,---,0.01,VWS V14.01,2013-11-07 16:36:00,
2013-11-07 10:43:00,54.6,43.5,30.39,ESE,119,4.0,8.0,66,0.01,,---,0.01,VWS V14.01,2013-11-07 16:43:00,
2013-11-07 10:48:00,54.9,44.2,30.40,NE,51,1.0,9.0,67,0.01,,---,0.01,VWS V14.01,2013-11-07 16:48:00,
2013-11-07 10:53:00,55.5,44.7,30.39,WNW,301,4.0,9.0,67,0.01,,---,0.01,VWS V14.01,2013-11-07 16:53:00,
2013-11-07 10:58:00,56.3,43.9,30.39,NE,34,5.0,9.0,63,0.01,,---,0.01,VWS V14.01,2013-11-07 16:58:00,
2013-11-07 11:03:00,56.1,43.7,30.39,ESE,104,3.0,9.0,63,0.01,,---,0.01,VWS V14.01,2013-11-07 17:03:00,
2013-11-07 11:06:00,56.1,43.7,30.39,East,90,5.0,9.0,63,0.01,,---,0.01,VWS V14.01,2013-11-07 17:06:00,
2013-11-07 11:08:00,56.0,43.6,30.39,ENE,71,5.0,11.0,63,0.00,,---,0.01,VWS V14.01,2013-11-07 17:08:00,
2013-11-07 11:13:00,56.3,43.9,30.39,East,101,5.0,11.0,63,0.00,,---,0.01,VWS V14.01,2013-11-07 17:13:00,
2013-11-07 11:18:00,56.7,44.3,30.39,ENE,78,8.0,11.0,63,0.00,,---,0.01,VWS V14.01,2013-11-07 17:18:00,
2013-11-07 11:23:00,56.7,44.3,30.39,ESE,103,3.0,11.0,63,0.00,,---,0.01,VWS V14.01,2013-11-07 17:23:00,
2013-11-07 11:28:00,57.4,44.5,30.39,North,349,1.0,11.0,62,0.00,,---,0.01,VWS V14.01,2013-11-07 17:28:00,
2013-11-07 11:33:00,57.6,44.7,30.39,ENE,77,3.0,11.0,62,0.00,,---,0.01,VWS V14.01,2013-11-07 17:33:00,
2013-11-07 11:36:00,57.7,44.4,30.39,North,355,4.0,11.0,61,0.00,,---,0.01,VWS V14.01,2013-11-07 17:36:00,
2013-11-07 11:38:00,57.7,44.4,30.39,East,99,1.0,5.0,61,0.00,,---,0.01,VWS V14.01,2013-11-07 17:38:00,
2013-11-07 11:43:00,58.2,44.4,30.38,ENE,76,3.0,6.0,60,0.00,,---,0.01,VWS V14.01,2013-11-07 17:43:00,
2013-11-07 11:48:00,58.4,44.6,30.38,East,89,2.0,6.0,60,0.00,,---,0.01,VWS V14.01,2013-11-07 17:48:00,
2013-11-07 11:53:00,58.3,44.0,30.38,SE,128,4.0,7.0,59,0.00,,---,0.01,VWS V14.01,2013-11-07 17:53:00,
2013-11-07 11:58:00,58.4,44.1,30.38,SE,143,4.0,11.0,59,0.00,,---,0.01,VWS V14.01,2013-11-07 17:58:00,
2013-11-07 12:03:00,58.1,43.0,30.37,SE,142,5.0,11.0,57,0.00,,---,0.01,VWS V14.01,2013-11-07 18:03:00,
2013-11-07 12:06:00,57.8,43.1,30.37,ESE,108,4.0,11.0,58,0.00,,---,0.01,VWS V14.01,2013-11-07 18:06:00,
2013-11-07 12:13:00,57.8,44.5,30.37,ENE,76,1.0,5.0,61,0.00,,---,0.01,VWS V14.01,2013-11-07 18:13:00,
2013-11-07 12:18:00,58.1,44.3,30.37,East,92,1.0,8.0,60,0.00,,---,0.01,VWS V14.01,2013-11-07 18:18:00,
2013-11-07 12:23:00,58.7,44.9,30.37,East,80,2.0,8.0,60,0.00,,---,0.01,VWS V14.01,2013-11-07 18:23:00,
2013-11-07 12:28:00,58.6,44.3,30.36,East,86,2.0,8.0,59,0.00,,---,0.01,VWS V14.01,2013-11-07 18:28:00,
2013-11-07 12:33:00,59.1,45.7,30.36,North,10,5.0,8.0,61,0.00,,---,0.01,VWS V14.01,2013-11-07 18:33:00,
2013-11-07 12:36:00,59.8,46.8,30.36,North,355,7.0,8.0,62,0.00,,---,0.01,VWS V14.01,2013-11-07 18:36:00,
2013-11-07 12:38:00,59.9,45.1,30.36,ENE,69,4.0,9.0,58,0.00,,---,0.01,VWS V14.01,2013-11-07 18:38:00,
2013-11-07 12:43:00,59.6,44.8,30.36,ENE,74,2.0,9.0,58,0.00,,---,0.01,VWS V14.01,2013-11-07 18:43:00,
2013-11-07 12:48:00,59.8,45.0,30.35,ENE,63,4.0,9.0,58,0.00,,---,0.01,VWS V14.01,2013-11-07 18:48:00,
2013-11-07 12:53:00,60.5,43.3,30.35,NW,311,0.0,9.0,53,0.00,,---,0.01,VWS V14.01,2013-11-07 18:53:00,
2013-11-07 12:58:00,60.8,43.6,30.34,East,95,3.0,9.0,53,0.00,,---,0.01,VWS V14.01,2013-11-07 18:58:00,
2013-11-07 13:03:00,60.7,43.5,30.34,ENE,73,2.0,9.0,53,0.00,,---,0.01,VWS V14.01,2013-11-07 19:03:00,
2013-11-07 13:06:00,60.6,42.9,30.34,SE,134,2.0,9.0,52,0.00,,---,0.01,VWS V14.01,2013-11-07 19:06:00,
2013-11-07 13:08:00,60.4,44.7,30.34,East,87,0.0,2.0,56,0.00,,---,0.01,VWS V14.01,2013-11-07 19:08:00,
2013-11-07 13:13:00,60.9,42.7,30.34,NW,324,2.0,10.0,51,0.00,,---,0.01,VWS V14.01,2013-11-07 19:13:00,
2013-11-07 13:18:00,61.0,43.3,30.34,East,98,3.0,10.0,52,0.00,,---,0.01,VWS V14.01,2013-11-07 19:18:00,
2013-11-07 13:23:00,61.1,43.9,30.34,NNE,24,4.0,10.0,53,0.00,,---,0.01,VWS V14.01,2013-11-07 19:23:00,
2013-11-07 13:28:00,61.6,45.3,30.34,North,9,2.0,10.0,55,0.00,,---,0.01,VWS V14.01,2013-11-07 19:28:00,
2013-11-07 13:33:00,62.5,44.7,30.33,NE,45,3.0,10.0,52,0.00,,---,0.01,VWS V14.01,2013-11-07 19:33:00,
2013-11-07 13:38:00,62.5,44.7,30.34,ESE,115,2.0,3.0,52,0.00,,---,0.01,VWS V14.01,2013-11-07 19:38:00,
2013-11-07 13:43:00,62.4,45.1,30.34,ESE,118,2.0,4.0,53,0.00,,---,0.01,VWS V14.01,2013-11-07 19:43:00,
2013-11-07 13:48:00,62.3,44.5,30.33,East,80,1.0,7.0,52,0.00,,---,0.01,VWS V14.01,2013-11-07 19:48:00,
2013-11-07 13:53:00,62.3,44.5,30.33,East,84,3.0,7.0,52,0.00,,---,0.01,VWS V14.01,2013-11-07 19:53:00,
2013-11-07 13:58:00,62.2,44.4,30.33,East,82,3.0,7.0,52,0.00,,---,0.01,VWS V14.01,2013-11-07 19:58:00,
2013-11-07 14:03:00,62.4,44.6,30.33,NNE,22,2.0,7.0,52,0.00,,---,0.01,VWS V14.01,2013-11-07 20:03:00,
2013-11-07 14:06:00,62.5,44.7,30.33,SE,144,2.0,7.0,52,0.00,,---,0.01,VWS V14.01,2013-11-07 20:06:00,
2013-11-07 14:08:00,62.6,44.2,30.33,WNW,293,0.0,6.0,51,0.00,,---,0.01,VWS V14.01,2013-11-07 20:08:00,
2013-11-07 14:13:00,62.8,45.4,30.33,East,88,3.0,6.0,53,0.00,,---,0.01,VWS V14.01,2013-11-07 20:13:00,
2013-11-07 14:19:00,62.8,44.9,30.33,ESE,103,1.0,6.0,52,0.00,,---,0.01,VWS V14.01,2013-11-07 20:19:00,
2013-11-07 14:24:00,62.7,43.3,30.33,NE,41,2.0,8.0,49,0.00,,---,0.01,VWS V14.01,2013-11-07 20:24:00,
2013-11-07 14:29:00,62.7,42.8,30.33,ESE,102,7.0,8.0,48,0.00,,---,0.01,VWS V14.01,2013-11-07 20:29:00,
2013-11-07 14:34:00,62.6,43.2,30.33,ESE,121,3.0,10.0,49,0.00,,---,0.01,VWS V14.01,2013-11-07 20:34:00,
2013-11-07 14:36:00,62.5,43.6,30.33,NNE,24,5.0,10.0,50,0.00,,---,0.01,VWS V14.01,2013-11-07 20:36:00,
2013-11-07 14:44:00,62.2,42.3,30.33,East,79,1.0,8.0,48,0.00,,---,0.01,VWS V14.01,2013-11-07 20:44:00,
2013-11-07 14:49:00,62.3,43.4,30.33,NW,315,2.0,8.0,50,0.00,,---,0.01,VWS V14.01,2013-11-07 20:49:00,
2013-11-07 14:54:00,62.3,42.9,30.32,East,92,2.0,10.0,49,0.00,,---,0.01,VWS V14.01,2013-11-07 20:54:00,
2013-11-07 14:59:00,62.2,43.3,30.32,NE,34,3.0,10.0,50,0.00,,---,0.01,VWS V14.01,2013-11-07 20:59:00,
2013-11-07 15:04:00,62.1,42.2,30.33,East,84,3.0,10.0,48,0.00,,---,0.01,VWS V14.01,2013-11-07 21:04:00,
2013-11-07 15:06:00,62.0,42.1,30.33,East,82,2.0,10.0,48,0.00,,---,0.01,VWS V14.01,2013-11-07 21:06:00,
2013-11-07 15:09:00,61.9,42.5,30.33,NNE,31,3.0,6.0,49,0.00,,---,0.01,VWS V14.01,2013-11-07 21:09:00,
2013-11-07 15:14:00,61.7,42.4,30.33,NNW,336,1.0,6.0,49,0.00,,---,0.01,VWS V14.01,2013-11-07 21:14:00,
2013-11-07 15:19:00,61.6,42.3,30.32,NE,53,1.0,7.0,49,0.00,,---,0.01,VWS V14.01,2013-11-07 21:19:00,
2013-11-07 15:24:00,61.6,43.3,30.32,ESE,102,2.0,9.0,51,0.00,,---,0.01,VWS V14.01,2013-11-07 21:24:00,
2013-11-07 15:29:00,61.5,42.7,30.33,NE,55,1.0,9.0,50,0.00,,---,0.01,VWS V14.01,2013-11-07 21:29:00,
2013-11-07 15:34:00,61.5,43.2,30.33,SE,145,0.0,9.0,51,0.00,,---,0.01,VWS V14.01,2013-11-07 21:34:00,
2013-11-07 15:36:00,61.4,43.6,30.33,ENE,61,3.0,9.0,52,0.00,,---,0.01,VWS V14.01,2013-11-07 21:36:00,
2013-11-07 15:39:00,61.3,42.5,30.33,NNW,340,2.0,5.0,50,0.00,,---,0.01,VWS V14.01,2013-11-07 21:39:00,
2013-11-07 15:44:00,61.3,43.0,30.33,NNE,18,1.0,11.0,51,0.00,,---,0.01,VWS V14.01,2013-11-07 21:44:00,
2013-11-07 15:49:00,61.1,43.4,30.33,NW,313,1.0,11.0,52,0.00,,---,0.01,VWS V14.01,2013-11-07 21:49:00,
2013-11-07 15:54:00,61.0,43.3,30.33,ENE,67,7.0,11.0,52,0.00,,---,0.01,VWS V14.01,2013-11-07 21:54:00,
2013-11-07 15:59:00,60.7,42.5,30.33,NE,56,2.0,11.0,51,0.00,,---,0.01,VWS V14.01,2013-11-07 21:59:00,
2013-11-07 16:04:00,60.6,42.4,30.33,NNE,32,3.0,11.0,51,0.00,,---,0.01,VWS V14.01,2013-11-07 22:04:00,
2013-11-07 16:09:00,60.4,42.7,30.33,NNW,337,0.0,5.0,52,0.00,,---,0.01,VWS V14.01,2013-11-07 22:09:00,
2013-11-07 16:14:00,60.3,44.1,30.33,East,88,1.0,5.0,55,0.00,,---,0.01,VWS V14.01,2013-11-07 22:14:00,
2013-11-07 16:19:00,60.1,42.9,30.33,NE,55,1.0,5.0,53,0.00,,---,0.01,VWS V14.01,2013-11-07 22:19:00,
2013-11-07 16:24:00,59.6,43.0,30.33,NNW,344,2.0,5.0,54,0.00,,---,0.01,VWS V14.01,2013-11-07 22:24:00,
2013-11-07 16:29:00,59.2,43.1,30.33,NNE,18,1.0,7.0,55,0.00,,---,0.01,VWS V14.01,2013-11-07 22:29:00,
2013-11-07 16:34:00,58.8,43.2,30.33,ESE,113,2.0,7.0,56,0.00,,---,0.01,VWS V14.01,2013-11-07 22:34:00,
2013-11-07 16:36:00,58.7,43.1,30.33,NE,37,2.0,7.0,56,0.00,,---,0.01,VWS V14.01,2013-11-07 22:36:00,
2013-11-07 16:39:00,58.5,43.3,30.33,ENE,71,5.0,5.0,57,0.00,,---,0.01,VWS V14.01,2013-11-07 22:39:00,
2013-11-07 16:44:00,58.2,43.1,30.34,ESE,111,3.0,5.0,57,0.00,,---,0.01,VWS V14.01,2013-11-07 22:44:00,
2013-11-07 16:49:00,57.9,43.2,30.34,NNW,341,0.0,5.0,58,0.00,,---,0.01,VWS V14.01,2013-11-07 22:49:00,
2013-11-07 16:54:00,57.6,43.4,30.34,NNW,341,0.0,5.0,59,0.00,,---,0.01,VWS V14.01,2013-11-07 22:54:00,
2013-11-07 16:59:00,57.4,43.6,30.34,NNW,341,0.0,5.0,60,0.00,,---,0.01,VWS V14.01,2013-11-07 22:59:00,
2013-11-07 17:04:00,57.1,43.8,30.34,East,81,1.0,5.0,61,0.00,,---,0.01,VWS V14.01,2013-11-07 23:04:00,
2013-11-07 17:09:00,56.8,43.9,30.34,East,81,0.0,1.0,62,0.00,,---,0.01,VWS V14.01,2013-11-07 23:09:00,
2013-11-07 17:14:00,56.4,44.0,30.34,East,81,0.0,1.0,63,0.00,,---,0.01,VWS V14.01,2013-11-07 23:14:00,
2013-11-07 17:19:00,56.0,44.0,30.34,East,81,0.0,1.0,64,0.00,,---,0.01,VWS V14.01,2013-11-07 23:19:00,
2013-11-07 17:24:00,55.7,43.7,30.34,East,81,0.0,1.0,64,0.00,,---,0.01,VWS V14.01,2013-11-07 23:24:00,
2013-11-07 17:29:00,55.4,44.2,30.34,East,81,0.0,1.0,66,0.00,,---,0.01,VWS V14.01,2013-11-07 23:29:00,
2013-11-07 17:34:00,55.0,43.9,30.35,East,81,0.0,1.0,66,0.00,,---,0.01,VWS V14.01,2013-11-07 23:34:00,
2013-11-07 17:36:00,54.9,44.2,30.35,East,81,0.0,1.0,67,0.00,,---,0.01,VWS V14.01,2013-11-07 23:36:00,
2013-11-07 17:39:00,54.7,44.4,30.35,East,81,0.0,0.0,68,0.00,,---,0.01,VWS V14.01,2013-11-07 23:39:00,
2013-11-07 17:44:00,54.2,43.9,30.35,East,81,0.0,0.0,68,0.00,,---,0.01,VWS V14.01,2013-11-07 23:44:00,
2013-11-07 17:49:00,53.7,43.8,30.35,East,81,0.0,0.0,69,0.00,,---,0.01,VWS V14.01,2013-11-07 23:49:00,
2013-11-07 17:54:00,53.2,44.0,30.35,East,81,0.0,0.0,71,0.00,,---,0.01,VWS V14.01,2013-11-07 23:54:00,
2013-11-07 17:59:00,52.7,44.3,30.35,East,81,0.0,0.0,73,0.00,,---,0.01,VWS V14.01,2013-11-07 23:59:00,
2013-11-07 18:04:00,52.2,44.2,30.35,East,81,0.0,0.0,74,0.00,,---,0.01,VWS V14.01,2013-11-08 00:04:00,
2013-11-07 18:06:00,52.1,44.1,30.35,East,81,0.0,0.0,74,0.00,,---,0.01,VWS V14.01,2013-11-08 00:06:00,
2013-11-07 18:14:00,51.2,44.2,30.35,East,81,0.0,0.0,77,0.00,,---,0.01,VWS V14.01,2013-11-08 00:14:00,
2013-11-07 18:19:00,50.6,44.3,30.36,East,81,0.0,0.0,79,0.00,,---,0.01,VWS V14.01,2013-11-08 00:19:00,
2013-11-07 18:24:00,49.9,44.0,30.36,East,81,0.0,0.0,80,0.00,,---,0.01,VWS V14.01,2013-11-08 00:24:00,
2013-11-07 18:29:00,49.4,43.8,30.36,East,81,0.0,0.0,81,0.00,,---,0.01,VWS V14.01,2013-11-08 00:29:00,
2013-11-07 18:34:00,49.1,43.8,30.36,East,81,0.0,0.0,82,0.00,,---,0.01,VWS V14.01,2013-11-08 00:34:00,
2013-11-07 18:36:00,49.0,43.8,30.36,East,81,0.0,0.0,82,0.00,,---,0.01,VWS V14.01,2013-11-08 00:36:00,
2013-11-07 18:39:00,48.6,43.7,30.36,East,81,0.0,0.0,83,0.00,,---,0.01,VWS V14.01,2013-11-08 00:39:00,
2013-11-07 18:44:00,48.1,43.5,30.36,East,81,0.0,0.0,84,0.00,,---,0.01,VWS V14.01,2013-11-08 00:44:00,
2013-11-07 18:49:00,47.9,43.6,30.36,East,81,0.0,0.0,85,0.00,,---,0.01,VWS V14.01,2013-11-08 00:49:00,
2013-11-07 18:54:00,47.6,43.3,30.36,East,81,0.0,0.0,85,0.00,,---,0.01,VWS V14.01,2013-11-08 00:54:00,
2013-11-07 18:59:00,47.4,43.4,30.36,East,81,0.0,0.0,86,0.00,,---,0.01,VWS V14.01,2013-11-08 00:59:00,
2013-11-07 19:04:00,47.2,43.2,30.36,East,81,0.0,0.0,86,0.00,,---,0.01,VWS V14.01,2013-11-08 01:04:00,
2013-11-07 19:06:00,47.1,43.1,30.36,East,81,0.0,0.0,86,0.00,,---,0.01,VWS V14.01,2013-11-08 01:06:00,
2013-11-07 19:14:00,46.8,43.1,30.36,East,81,0.0,0.0,87,0.00,,---,0.01,VWS V14.01,2013-11-08 01:14:00,
2013-11-07 19:19:00,46.6,42.9,30.36,East,81,0.0,0.0,87,0.00,,---,0.01,VWS V14.01,2013-11-08 01:19:00,
2013-11-07 19:24:00,46.4,43.0,30.37,East,81,0.0,0.0,88,0.00,,---,0.01,VWS V14.01,2013-11-08 01:24:00,
2013-11-07 19:29:00,46.1,43.0,30.37,East,81,0.0,0.0,89,0.00,,---,0.01,VWS V14.01,2013-11-08 01:29:00,
2013-11-07 19:34:00,46.0,43.0,30.37,East,81,0.0,0.0,89,0.00,,---,0.01,VWS V14.01,2013-11-08 01:34:00,
2013-11-07 19:36:00,46.0,43.0,30.36,East,81,0.0,0.0,89,0.00,,---,0.01,VWS V14.01,2013-11-08 01:36:00,
2013-11-07 19:39:00,45.9,42.8,30.36,East,81,0.0,0.0,89,0.00,,---,0.01,VWS V14.01,2013-11-08 01:39:00,
2013-11-07 19:44:00,45.8,42.8,30.36,East,81,0.0,0.0,89,0.00,,---,0.01,VWS V14.01,2013-11-08 01:44:00,
2013-11-07 19:49:00,45.6,42.8,30.37,East,81,0.0,0.0,90,0.00,,---,0.01,VWS V14.01,2013-11-08 01:49:00,
2013-11-07 19:54:00,45.5,42.7,30.37,East,81,0.0,0.0,90,0.00,,---,0.01,VWS V14.01,2013-11-08 01:54:00,
2013-11-07 20:00:00,45.4,42.6,30.37,East,81,0.0,0.0,90,0.00,,---,0.01,VWS V14.01,2013-11-08 02:00:00,
2013-11-07 20:05:00,45.3,42.5,30.37,East,81,0.0,0.0,90,0.00,,---,0.01,VWS V14.01,2013-11-08 02:05:00,
2013-11-07 20:10:00,45.1,42.6,30.37,East,81,0.0,0.0,91,0.00,,---,0.01,VWS V14.01,2013-11-08 02:10:00,
2013-11-07 20:15:00,45.1,42.6,30.38,East,81,0.0,0.0,91,0.00,,---,0.01,VWS V14.01,2013-11-08 02:15:00,
2013-11-07 20:20:00,45.0,42.5,30.38,East,81,0.0,0.0,91,0.00,,---,0.01,VWS V14.01,2013-11-08 02:20:00,
2013-11-07 20:25:00,44.9,42.4,30.38,East,81,0.0,0.0,91,0.00,,---,0.01,VWS V14.01,2013-11-08 02:25:00,
2013-11-07 20:30:00,44.7,42.2,30.38,East,81,0.0,0.0,91,0.00,,---,0.01,VWS V14.01,2013-11-08 02:30:00,
2013-11-07 20:35:00,44.6,42.1,30.38,East,81,0.0,0.0,91,0.00,,---,0.01,VWS V14.01,2013-11-08 02:35:00,
2013-11-07 20:36:00,44.6,42.1,30.38,East,81,0.0,0.0,91,0.00,,---,0.01,VWS V14.01,2013-11-08 02:36:00,
2013-11-07 20:45:00,44.4,41.9,30.38,East,81,0.0,0.0,91,0.00,,---,0.01,VWS V14.01,2013-11-08 02:45:00,
2013-11-07 20:50:00,44.3,41.8,30.38,East,81,0.0,0.0,91,0.00,,---,0.01,VWS V14.01,2013-11-08 02:50:00,
2013-11-07 20:55:00,44.2,41.7,30.37,East,81,0.0,0.0,91,0.00,,---,0.01,VWS V14.01,2013-11-08 02:55:00,
2013-11-07 21:00:00,44.1,41.9,30.37,East,81,0.0,0.0,92,0.00,,---,0.01,VWS V14.01,2013-11-08 03:00:00,
2013-11-07 21:05:00,44.1,41.9,30.37,East,81,0.0,0.0,92,0.00,,---,0.01,VWS V14.01,2013-11-08 03:05:00,
2013-11-07 21:06:00,44.1,41.9,30.37,East,81,0.0,0.0,92,0.00,,---,0.01,VWS V14.01,2013-11-08 03:06:00,
2013-11-07 21:15:00,43.9,41.7,30.38,East,81,0.0,0.0,92,0.00,,---,0.01,VWS V14.01,2013-11-08 03:15:00,
2013-11-07 21:20:00,43.8,41.6,30.37,East,81,0.0,0.0,92,0.00,,---,0.01,VWS V14.01,2013-11-08 03:20:00,
2013-11-07 21:25:00,43.7,41.5,30.37,East,81,0.0,0.0,92,0.00,,---,0.01,VWS V14.01,2013-11-08 03:25:00,
2013-11-07 21:30:00,43.6,41.4,30.37,East,81,0.0,0.0,92,0.00,,---,0.01,VWS V14.01,2013-11-08 03:30:00,
2013-11-07 21:35:00,43.5,41.6,30.37,East,81,0.0,0.0,93,0.00,,---,0.01,VWS V14.01,2013-11-08 03:35:00,
2013-11-07 21:36:00,43.4,41.5,30.37,East,81,0.0,0.0,93,0.00,,---,0.01,VWS V14.01,2013-11-08 03:36:00,
2013-11-07 21:40:00,43.4,41.5,30.37,East,81,0.0,0.0,93,0.00,,---,0.01,VWS V14.01,2013-11-08 03:40:00,
2013-11-07 21:45:00,43.3,41.4,30.38,East,81,0.0,0.0,93,0.00,,---,0.01,VWS V14.01,2013-11-08 03:45:00,
2013-11-07 21:50:00,43.2,41.3,30.37,East,81,0.0,0.0,93,0.00,,---,0.01,VWS V14.01,2013-11-08 03:50:00,
2013-11-07 21:55:00,43.1,41.2,30.37,East,81,0.0,0.0,93,0.00,,---,0.01,VWS V14.01,2013-11-08 03:55:00,
2013-11-07 22:00:00,43.0,41.1,30.37,East,81,0.0,0.0,93,0.00,,---,0.01,VWS V14.01,2013-11-08 04:00:00,
2013-11-07 22:05:00,42.9,41.0,30.37,East,81,0.0,0.0,93,0.00,,---,0.01,VWS V14.01,2013-11-08 04:05:00,
2013-11-07 22:06:00,42.9,41.0,30.37,East,81,0.0,0.0,93,0.00,,---,0.01,VWS V14.01,2013-11-08 04:06:00,
2013-11-07 22:10:00,42.8,40.9,30.37,East,81,0.0,0.0,93,0.00,,---,0.01,VWS V14.01,2013-11-08 04:10:00,
2013-11-07 22:15:00,42.7,40.8,30.37,East,81,0.0,0.0,93,0.00,,---,0.01,VWS V14.01,2013-11-08 04:15:00,
2013-11-07 22:20:00,42.6,40.7,30.38,East,81,0.0,0.0,93,0.00,,---,0.01,VWS V14.01,2013-11-08 04:20:00,
2013-11-07 22:25:00,42.6,40.7,30.37,East,81,0.0,0.0,93,0.00,,---,0.01,VWS V14.01,2013-11-08 04:25:00,
2013-11-07 22:30:00,42.5,40.6,30.37,East,81,0.0,0.0,93,0.00,,---,0.01,VWS V14.01,2013-11-08 04:30:00,
2013-11-07 22:35:00,42.4,40.5,30.37,East,81,0.0,0.0,93,0.00,,---,0.01,VWS V14.01,2013-11-08 04:35:00,
2013-11-07 22:36:00,42.4,40.5,30.37,East,81,0.0,0.0,93,0.00,,---,0.01,VWS V14.01,2013-11-08 04:36:00,
2013-11-07 22:40:00,42.4,40.5,30.37,East,81,0.0,0.0,93,0.00,,---,0.01,VWS V14.01,2013-11-08 04:40:00,
2013-11-07 22:45:00,42.3,40.4,30.37,East,81,0.0,0.0,93,0.00,,---,0.01,VWS V14.01,2013-11-08 04:45:00,
2013-11-07 22:50:00,42.2,40.6,30.38,East,81,0.0,0.0,94,0.00,,---,0.01,VWS V14.01,2013-11-08 04:50:00,
2013-11-07 22:55:00,42.0,40.4,30.38,East,81,0.0,0.0,94,0.00,,---,0.01,VWS V14.01,2013-11-08 04:55:00,
2013-11-07 23:00:00,41.9,40.0,30.38,East,81,0.0,0.0,93,0.00,,---,0.01,VWS V14.01,2013-11-08 05:00:00,
2013-11-07 23:05:00,41.8,39.9,30.37,East,81,0.0,0.0,93,0.00,,---,0.01,VWS V14.01,2013-11-08 05:05:00,
2013-11-07 23:06:00,41.8,40.2,30.37,East,81,0.0,0.0,94,0.00,,---,0.01,VWS V14.01,2013-11-08 05:06:00,
2013-11-07 23:10:00,41.8,39.9,30.37,East,81,0.0,0.0,93,0.00,,---,0.01,VWS V14.01,2013-11-08 05:10:00,
2013-11-07 23:15:00,41.6,40.0,30.37,East,81,0.0,0.0,94,0.00,,---,0.01,VWS V14.01,2013-11-08 05:15:00,
2013-11-07 23:20:00,41.5,39.9,30.37,East,81,0.0,0.0,94,0.00,,---,0.01,VWS V14.01,2013-11-08 05:20:00,
2013-11-07 23:25:00,41.4,39.8,30.37,East,81,0.0,0.0,94,0.00,,---,0.01,VWS V14.01,2013-11-08 05:25:00,
2013-11-07 23:30:00,41.3,39.7,30.36,East,81,0.0,0.0,94,0.00,,---,0.01,VWS V14.01,2013-11-08 05:30:00,
2013-11-07 23:35:00,41.2,39.6,30.36,East,81,0.0,0.0,94,0.00,,---,0.01,VWS V14.01,2013-11-08 05:35:00,
2013-11-07 23:36:00,41.2,39.6,30.36,East,81,0.0,0.0,94,0.00,,---,0.01,VWS V14.01,2013-11-08 05:36:00,
2013-11-07 23:40:00,41.2,39.6,30.36,East,81,0.0,0.0,94,0.00,,---,0.01,VWS V14.01,2013-11-08 05:40:00,
2013-11-07 23:45:00,41.1,39.5,30.36,East,81,0.0,0.0,94,0.00,,---,0.01,VWS V14.01,2013-11-08 05:45:00,
2013-11-07 23:50:00,41.0,39.4,30.36,East,81,0.0,0.0,94,0.00,,---,0.01,VWS V14.01,2013-11-08 05:50:00,
2013-11-07 23:55:00,41.0,39.4,30.36,East,81,0.0,0.0,94,0.00,,---,0.01,VWS V14.01,2013-11-08 05:55:00,